createdAt,value
2022-12-28T00:00:16.032Z,-2.12
2022-12-28T00:02:47.145Z,-2.08
2022-12-28T00:05:15.431Z,-2.09
2022-12-28T00:07:45.872Z,-2.04
2022-12-28T00:10:14.647Z,-1.96
2022-12-28T00:12:43.136Z,-1.92
2022-12-28T00:15:12.245Z,-1.95
2022-12-28T00:17:40.747Z,-1.96
2022-12-28T00:20:12.107Z,-2.00
2022-12-28T00:22:41.112Z,-2.04
2022-12-28T00:25:10.160Z,-2.07
2022-12-28T00:27:38.686Z,-2.05
2022-12-28T00:30:08.067Z,-1.97
2022-12-28T00:32:37.802Z,-1.93
2022-12-28T00:35:06.673Z,-1.93
2022-12-28T00:37:37.128Z,-1.93
2022-12-28T00:40:05.707Z,-1.90
2022-12-28T00:42:34.268Z,-1.85
2022-12-28T00:45:02.875Z,-1.81
2022-12-28T00:47:31.148Z,-1.79
2022-12-28T00:49:59.549Z,-1.76
2022-12-28T00:52:28.015Z,-1.71
2022-12-28T00:54:58.357Z,-1.64
2022-12-28T00:57:26.929Z,-1.59
2022-12-28T00:59:55.519Z,-1.53
2022-12-28T01:02:24.686Z,-1.50
2022-12-28T01:04:53.000Z,-1.45
2022-12-28T01:07:21.872Z,-1.45
2022-12-28T01:09:52.023Z,-1.43
2022-12-28T01:12:21.942Z,-1.41
2022-12-28T01:14:50.545Z,-1.40
2022-12-28T01:17:18.654Z,-1.43
2022-12-28T01:19:53.760Z,-1.40
2022-12-28T01:22:22.831Z,-1.34
2022-12-28T01:24:51.700Z,-1.34
2022-12-28T01:27:20.609Z,-1.35
2022-12-28T01:29:50.666Z,-1.38
2022-12-28T01:32:21.061Z,-1.38
2022-12-28T01:34:49.529Z,-1.35
2022-12-28T01:37:18.359Z,-1.35
2022-12-28T01:39:46.755Z,-1.30
2022-12-28T01:42:17.892Z,-1.26
2022-12-28T01:44:47.168Z,-1.25
2022-12-28T01:47:19.106Z,-1.26
2022-12-28T01:49:50.031Z,-1.25
2022-12-28T01:52:21.471Z,-1.20
2022-12-28T01:54:52.703Z,-1.13
2022-12-28T01:57:22.822Z,-1.04
2022-12-28T01:59:56.352Z,-1.00
2022-12-28T02:02:27.002Z,-0.98
2022-12-28T02:04:55.517Z,-0.95
2022-12-28T02:07:28.651Z,-0.90
2022-12-28T02:10:40.429Z,-0.82
2022-12-28T02:12:46.883Z,-0.74
2022-12-28T02:15:19.770Z,-0.71
2022-12-28T02:17:53.007Z,-0.67
2022-12-28T02:20:21.676Z,-0.64
2022-12-28T02:23:10.524Z,-0.61
2022-12-28T02:25:53.536Z,-0.61
2022-12-28T02:28:31.850Z,-0.61
2022-12-28T02:31:05.253Z,-0.60
2022-12-28T02:33:38.853Z,-0.63
2022-12-28T02:36:16.319Z,-0.67
2022-12-28T02:38:49.043Z,-0.68
2022-12-28T02:41:20.209Z,-0.72
2022-12-28T02:43:49.329Z,-0.72
2022-12-28T02:46:38.336Z,-0.72
2022-12-28T02:49:36.190Z,-0.71
2022-12-28T02:52:09.211Z,-0.68
2022-12-28T02:55:05.796Z,-0.66
2022-12-28T02:57:44.890Z,-0.65
2022-12-28T03:00:15.429Z,-0.66
2022-12-28T03:02:56.148Z,-0.66
2022-12-28T03:05:45.742Z,-0.67
2022-12-28T03:08:20.473Z,-0.69
2022-12-28T03:10:51.451Z,-0.67
2022-12-28T03:13:40.407Z,-0.66
2022-12-28T03:16:11.974Z,-0.60
2022-12-28T03:19:00.060Z,-0.60
2022-12-28T03:21:46.428Z,-0.53
2022-12-28T03:24:33.811Z,-0.49
2022-12-28T03:27:21.736Z,-0.44
2022-12-28T03:30:11.991Z,-0.39
2022-12-28T03:32:41.634Z,-0.39
2022-12-28T03:35:12.399Z,-0.39
2022-12-28T03:37:44.647Z,-0.34
2022-12-28T03:40:20.809Z,-0.35
2022-12-28T03:43:08.788Z,-0.33
2022-12-28T03:45:45.470Z,-0.34
2022-12-28T03:48:16.751Z,-0.33
2022-12-28T03:50:48.447Z,-0.28
2022-12-28T03:53:17.769Z,-0.24
2022-12-28T03:55:46.233Z,-0.18
2022-12-28T03:58:14.419Z,-0.14
2022-12-28T04:00:43.425Z,-0.09
2022-12-28T04:03:11.762Z,-0.05
2022-12-28T04:05:40.256Z,0.04
2022-12-28T04:08:10.371Z,0.13
2022-12-28T04:10:38.997Z,0.10
2022-12-28T04:13:07.617Z,0.13
2022-12-28T04:15:36.327Z,0.05
2022-12-28T04:18:04.575Z,-0.07
2022-12-28T04:20:33.134Z,-0.15
2022-12-28T04:23:02.052Z,-0.27
2022-12-28T04:25:31.746Z,-0.35
2022-12-28T04:28:00.279Z,-0.43
2022-12-28T04:30:28.457Z,-0.49
2022-12-28T04:32:57.752Z,-0.48
2022-12-28T04:35:28.075Z,-0.51
2022-12-28T04:37:56.431Z,-0.49
2022-12-28T04:40:25.023Z,-0.40
2022-12-28T04:42:55.470Z,-0.34
2022-12-28T04:45:23.872Z,-0.29
2022-12-28T04:47:52.619Z,-0.24
2022-12-28T04:50:21.203Z,-0.12
2022-12-28T04:52:49.654Z,-0.08
2022-12-28T04:55:33.123Z,-0.08
2022-12-28T04:58:04.063Z,-0.06
2022-12-28T05:00:32.721Z,-0.04
2022-12-28T05:03:01.131Z,-0.01
2022-12-28T05:05:30.294Z,0.03
2022-12-28T05:08:02.192Z,0.07
2022-12-28T05:10:31.024Z,0.15
2022-12-28T05:12:59.296Z,0.14
2022-12-28T05:15:30.140Z,0.27
2022-12-28T05:17:58.489Z,0.26
2022-12-28T05:20:27.088Z,0.36
2022-12-28T05:22:55.812Z,0.45
2022-12-28T05:25:24.603Z,0.56
2022-12-28T05:27:53.041Z,0.62
2022-12-28T05:30:21.149Z,0.61
2022-12-28T05:32:52.692Z,0.66
2022-12-28T05:35:20.954Z,0.68
2022-12-28T05:37:49.472Z,0.74
2022-12-28T05:40:17.841Z,0.79
2022-12-28T05:42:51.498Z,0.78
2022-12-28T05:45:21.288Z,0.78
2022-12-28T05:47:49.803Z,0.81
2022-12-28T05:50:19.864Z,0.87
2022-12-28T05:52:48.717Z,0.92
2022-12-28T05:55:17.567Z,0.99
2022-12-28T05:57:45.835Z,0.95
2022-12-28T06:00:14.802Z,1.02
2022-12-28T06:02:43.624Z,1.06
2022-12-28T06:05:12.240Z,1.13
2022-12-28T06:07:42.564Z,1.14
2022-12-28T06:10:11.325Z,1.18
2022-12-28T06:12:39.775Z,1.16
2022-12-28T06:15:08.923Z,1.17
2022-12-28T06:17:37.133Z,1.22
2022-12-28T06:20:06.709Z,1.23
2022-12-28T06:22:36.412Z,1.24
2022-12-28T06:25:09.534Z,1.25
2022-12-28T06:27:38.029Z,1.28
2022-12-28T06:30:06.830Z,1.30
2022-12-28T06:32:35.800Z,1.30
2022-12-28T06:35:03.924Z,1.32
2022-12-28T06:37:32.512Z,1.33
2022-12-28T06:40:00.740Z,1.39
2022-12-28T06:42:30.582Z,1.38
2022-12-28T06:45:00.196Z,1.39
2022-12-28T06:47:28.907Z,1.36
2022-12-28T06:49:57.194Z,1.32
2022-12-28T06:52:26.543Z,1.30
2022-12-28T06:54:54.782Z,1.28
2022-12-28T06:57:23.110Z,1.26
2022-12-28T06:59:52.878Z,1.19
2022-12-28T07:02:21.473Z,1.18
2022-12-28T07:04:50.714Z,1.14
2022-12-28T07:07:20.534Z,1.13
2022-12-28T07:09:48.704Z,1.21
2022-12-28T07:12:17.303Z,1.25
2022-12-28T07:14:46.100Z,1.30
2022-12-28T07:17:17.203Z,1.34
2022-12-28T07:19:45.335Z,1.42
2022-12-28T07:22:14.117Z,1.44
2022-12-28T07:24:42.415Z,1.51
2022-12-28T07:27:10.474Z,1.57
2022-12-28T07:29:38.701Z,1.59
2022-12-28T07:32:08.464Z,1.69
2022-12-28T07:34:38.208Z,1.69
2022-12-28T07:37:06.463Z,1.70
2022-12-28T07:39:35.367Z,1.71
2022-12-28T07:42:07.378Z,1.74
2022-12-28T07:44:38.172Z,1.83
2022-12-28T07:47:07.083Z,1.89
2022-12-28T07:49:35.180Z,1.90
2022-12-28T07:52:05.726Z,1.95
2022-12-28T07:54:34.884Z,1.95
2022-12-28T07:57:03.158Z,1.97
2022-12-28T07:59:31.634Z,2.00
2022-12-28T08:02:00.520Z,2.03
2022-12-28T08:04:29.955Z,2.05
2022-12-28T08:06:58.333Z,2.08
2022-12-28T08:09:27.922Z,2.12
2022-12-28T08:11:58.775Z,2.16
2022-12-28T08:14:27.417Z,2.23
2022-12-28T08:16:57.519Z,2.30
2022-12-28T08:19:26.749Z,2.42
2022-12-28T08:21:55.212Z,2.53
2022-12-28T08:24:24.464Z,2.62
2022-12-28T08:26:54.358Z,2.75
2022-12-28T08:29:23.717Z,2.79
2022-12-28T08:31:52.604Z,2.80
2022-12-28T08:34:24.094Z,2.95
2022-12-28T08:36:52.176Z,3.02
2022-12-28T08:39:21.076Z,3.03
2022-12-28T08:41:50.140Z,3.05
2022-12-28T08:44:19.664Z,3.09
2022-12-28T08:46:48.184Z,3.18
2022-12-28T08:49:16.707Z,3.19
2022-12-28T08:51:45.393Z,3.30
2022-12-28T08:54:14.414Z,3.34
2022-12-28T08:56:43.916Z,3.41
2022-12-28T08:59:14.555Z,3.51
2022-12-28T09:01:45.286Z,3.50
2022-12-28T09:04:15.603Z,3.52
2022-12-28T09:06:46.055Z,3.54
2022-12-28T09:09:16.257Z,3.52
2022-12-28T09:11:44.654Z,3.58
2022-12-28T09:14:22.252Z,3.58
2022-12-28T09:16:54.248Z,3.64
2022-12-28T09:19:24.356Z,3.74
2022-12-28T09:21:54.148Z,3.80
2022-12-28T09:24:23.264Z,3.94
2022-12-28T09:26:53.289Z,4.08
2022-12-28T09:29:21.792Z,4.19
2022-12-28T09:31:50.193Z,4.12
2022-12-28T09:34:37.531Z,4.12
2022-12-28T09:37:06.436Z,4.16
2022-12-28T09:39:35.561Z,4.24
2022-12-28T09:42:05.946Z,4.12
2022-12-28T09:44:56.381Z,4.15
2022-12-28T09:47:28.475Z,4.23
2022-12-28T09:50:05.710Z,4.30
2022-12-28T09:52:36.202Z,4.23
2022-12-28T09:55:09.090Z,4.29
2022-12-28T09:57:39.601Z,4.37
2022-12-28T10:00:10.247Z,4.44
2022-12-28T10:02:41.454Z,4.49
2022-12-28T10:05:14.538Z,4.55
2022-12-28T10:07:43.133Z,4.52
2022-12-28T10:10:15.564Z,4.53
2022-12-28T10:12:46.169Z,4.51
2022-12-28T10:15:15.031Z,4.59
2022-12-28T10:17:45.315Z,4.65
2022-12-28T10:20:21.027Z,4.70
2022-12-28T10:22:52.497Z,4.77
2022-12-28T10:25:22.537Z,4.81
2022-12-28T10:27:51.069Z,4.84
2022-12-28T10:30:21.433Z,4.90
2022-12-28T10:32:58.036Z,4.95
2022-12-28T10:35:35.672Z,5.03
2022-12-28T10:38:06.200Z,5.11
2022-12-28T10:40:36.189Z,5.20
2022-12-28T10:43:10.719Z,5.19
2022-12-28T10:45:41.834Z,5.24
2022-12-28T10:48:11.976Z,5.23
2022-12-28T10:50:45.143Z,5.26
2022-12-28T10:53:35.321Z,5.30
2022-12-28T10:56:07.918Z,5.37
2022-12-28T10:58:36.722Z,5.49
2022-12-28T11:01:07.928Z,5.57
2022-12-28T11:03:37.460Z,5.58
2022-12-28T11:06:11.274Z,5.64
2022-12-28T11:08:40.367Z,5.82
2022-12-28T11:11:08.870Z,5.85
2022-12-28T11:13:40.704Z,5.78
2022-12-28T11:16:12.768Z,5.75
2022-12-28T11:18:42.460Z,5.82
2022-12-28T11:21:13.164Z,5.84
2022-12-28T11:23:43.148Z,5.82
2022-12-28T11:26:13.172Z,5.83
2022-12-28T11:28:43.090Z,5.79
2022-12-28T11:31:19.567Z,5.81
2022-12-28T11:33:51.139Z,5.81
2022-12-28T11:36:23.484Z,5.83
2022-12-28T11:38:52.807Z,5.87
2022-12-28T11:41:47.002Z,5.90
2022-12-28T11:44:25.729Z,5.92
2022-12-28T11:47:04.105Z,5.94
2022-12-28T11:49:34.321Z,5.97
2022-12-28T11:52:24.762Z,5.99
2022-12-28T11:54:58.047Z,6.01
2022-12-28T11:57:36.168Z,6.11
2022-12-28T12:00:25.355Z,6.17
2022-12-28T12:02:58.999Z,6.26
2022-12-28T12:05:51.877Z,6.32
2022-12-28T12:08:40.536Z,6.44
2022-12-28T12:11:31.137Z,6.51
2022-12-28T12:14:02.602Z,6.47
2022-12-28T12:16:37.449Z,6.44
2022-12-28T12:19:09.507Z,6.45
2022-12-28T12:21:41.448Z,6.53
2022-12-28T12:24:40.542Z,6.57
2022-12-28T12:27:15.700Z,6.58
2022-12-28T12:29:48.746Z,6.62
2022-12-28T12:32:19.858Z,6.64
2022-12-28T12:34:51.303Z,6.77
2022-12-28T12:37:30.646Z,6.91
2022-12-28T12:40:12.213Z,6.95
2022-12-28T12:42:47.101Z,6.92
2022-12-28T12:45:26.711Z,6.83
2022-12-28T12:48:09.607Z,6.78
2022-12-28T12:50:52.674Z,6.71
2022-12-28T12:53:27.943Z,6.61
2022-12-28T12:56:04.214Z,6.58
2022-12-28T12:58:42.513Z,6.51
2022-12-28T13:01:21.834Z,6.42
2022-12-28T13:03:51.458Z,6.34
2022-12-28T13:06:23.757Z,6.27
2022-12-28T13:09:00.437Z,6.23
2022-12-28T13:11:33.303Z,6.18
2022-12-28T13:14:01.873Z,6.13
2022-12-28T13:16:33.251Z,6.12
2022-12-28T13:19:02.764Z,6.13
2022-12-28T13:21:32.680Z,6.17
2022-12-28T13:24:03.809Z,6.20
2022-12-28T13:26:35.026Z,6.21
2022-12-28T13:29:05.485Z,6.25
2022-12-28T13:31:37.078Z,6.27
2022-12-28T13:34:07.885Z,6.39
2022-12-28T13:36:39.201Z,6.49
2022-12-28T13:39:14.176Z,6.58
2022-12-28T13:41:50.568Z,6.63
2022-12-28T13:44:31.629Z,6.68
2022-12-28T13:47:05.128Z,6.68
2022-12-28T13:49:36.793Z,6.70
2022-12-28T13:52:10.895Z,6.69
2022-12-28T13:54:40.607Z,6.74
2022-12-28T13:57:44.693Z,6.76
2022-12-28T14:00:00.699Z,6.82
2022-12-28T14:02:35.341Z,6.85
2022-12-28T14:05:04.576Z,6.89
2022-12-28T14:07:35.663Z,6.88
2022-12-28T14:10:04.976Z,6.87
2022-12-28T14:12:34.370Z,6.83
2022-12-28T14:15:04.758Z,6.82
2022-12-28T14:17:37.041Z,6.86
2022-12-28T14:20:05.944Z,6.84
2022-12-28T14:22:36.489Z,6.86
2022-12-28T14:25:10.525Z,6.91
2022-12-28T14:27:41.759Z,6.89
2022-12-28T14:30:22.967Z,6.87
2022-12-28T14:32:53.980Z,6.83
2022-12-28T14:35:25.185Z,6.77
2022-12-28T14:37:56.445Z,6.75
2022-12-28T14:40:29.401Z,6.75
2022-12-28T14:42:58.727Z,6.69
2022-12-28T14:46:07.171Z,6.67
2022-12-28T14:48:37.332Z,6.63
2022-12-28T14:51:11.065Z,6.62
2022-12-28T14:53:43.231Z,6.58
2022-12-28T14:56:13.824Z,6.56
2022-12-28T14:58:51.167Z,6.52
2022-12-28T15:01:23.496Z,6.50
2022-12-28T15:03:57.427Z,6.47
2022-12-28T15:06:28.329Z,6.45
2022-12-28T15:08:59.941Z,6.44
2022-12-28T15:11:29.388Z,6.38
2022-12-28T15:14:00.871Z,6.34
2022-12-28T15:16:29.752Z,6.30
2022-12-28T15:19:03.780Z,6.27
2022-12-28T15:21:34.383Z,6.22
2022-12-28T15:24:03.226Z,6.17
2022-12-28T15:26:34.761Z,6.19
2022-12-28T15:29:07.593Z,6.18
2022-12-28T15:31:37.443Z,6.19
2022-12-28T15:34:08.587Z,6.19
2022-12-28T15:36:37.475Z,6.21
2022-12-28T15:39:25.365Z,6.20
2022-12-28T15:41:53.781Z,6.20
2022-12-28T15:44:24.418Z,6.21
2022-12-28T15:46:53.813Z,6.17
2022-12-28T15:49:25.108Z,6.15
2022-12-28T15:51:55.362Z,6.15
2022-12-28T15:54:25.010Z,6.11
2022-12-28T15:56:54.679Z,6.11
2022-12-28T15:59:24.694Z,6.13
2022-12-28T16:01:53.537Z,6.12
2022-12-28T16:04:21.962Z,6.07
2022-12-28T16:06:52.356Z,6.01
2022-12-28T16:09:20.634Z,6.01
2022-12-28T16:11:55.045Z,5.99
2022-12-28T16:14:24.603Z,5.97
2022-12-28T16:16:53.333Z,5.94
2022-12-28T16:19:23.184Z,5.96
2022-12-28T16:21:54.429Z,5.95
2022-12-28T16:24:23.044Z,5.96
2022-12-28T16:26:51.980Z,5.97
2022-12-28T16:29:20.759Z,5.98
2022-12-28T16:31:50.179Z,6.01
2022-12-28T16:34:19.365Z,5.98
2022-12-28T16:36:48.559Z,5.99
2022-12-28T16:39:20.870Z,5.96
2022-12-28T16:41:48.992Z,5.96
2022-12-28T16:44:18.716Z,5.96
2022-12-28T16:46:46.854Z,5.95
2022-12-28T16:49:15.473Z,5.93
2022-12-28T16:51:45.121Z,5.94
2022-12-28T16:54:15.540Z,5.87
2022-12-28T16:56:47.681Z,5.81
2022-12-28T16:59:17.052Z,5.78
2022-12-28T17:01:46.875Z,5.69
2022-12-28T17:04:16.705Z,5.63
2022-12-28T17:06:46.882Z,5.56
2022-12-28T17:09:15.412Z,5.48
2022-12-28T17:11:43.899Z,5.45
2022-12-28T17:14:35.920Z,5.45
2022-12-28T17:17:05.805Z,5.36
2022-12-28T17:19:34.139Z,5.29
2022-12-28T17:22:03.041Z,5.24
2022-12-28T17:24:31.399Z,5.19
2022-12-28T17:27:07.236Z,5.10
2022-12-28T17:29:39.727Z,5.02
2022-12-28T17:32:11.971Z,4.96
2022-12-28T17:34:40.092Z,4.90
2022-12-28T17:37:08.379Z,4.89
2022-12-28T17:39:40.654Z,4.86
2022-12-28T17:42:09.500Z,4.83
2022-12-28T17:44:39.862Z,4.80
2022-12-28T17:47:09.603Z,4.77
2022-12-28T17:49:37.727Z,4.72
2022-12-28T17:52:06.556Z,4.69
2022-12-28T17:54:35.449Z,4.64
2022-12-28T17:57:03.767Z,4.58
2022-12-28T17:59:33.148Z,4.51
2022-12-28T18:02:05.551Z,4.46
2022-12-28T18:04:37.004Z,4.46
2022-12-28T18:07:06.997Z,4.38
2022-12-28T18:09:35.888Z,4.34
2022-12-28T18:12:04.463Z,4.32
2022-12-28T18:14:32.650Z,4.23
2022-12-28T18:17:01.018Z,4.15
2022-12-28T18:19:31.194Z,4.09
2022-12-28T18:21:59.489Z,3.99
2022-12-28T18:24:29.417Z,3.93
2022-12-28T18:26:58.051Z,3.86
2022-12-28T18:29:26.933Z,3.85
2022-12-28T18:31:55.121Z,3.88
2022-12-28T18:34:23.864Z,3.88
2022-12-28T18:36:53.951Z,4.05
2022-12-28T18:39:22.428Z,4.01
2022-12-28T18:41:51.885Z,3.96
2022-12-28T18:44:21.049Z,3.95
2022-12-28T18:46:49.367Z,3.89
2022-12-28T18:49:19.875Z,3.86
2022-12-28T18:51:50.261Z,3.81
2022-12-28T18:54:21.042Z,3.81
2022-12-28T18:56:49.416Z,3.73
2022-12-28T18:59:18.653Z,3.77
2022-12-28T19:04:36.558Z,3.61
2022-12-28T19:07:05.398Z,3.57
2022-12-28T19:09:36.876Z,3.63
2022-12-28T19:12:06.832Z,3.62
2022-12-28T19:14:34.999Z,3.60
2022-12-28T19:17:07.933Z,3.64
2022-12-28T19:19:37.198Z,3.68
2022-12-28T19:22:07.695Z,3.67
2022-12-28T19:24:41.093Z,3.63
2022-12-28T19:27:11.748Z,3.59
2022-12-28T19:29:40.569Z,3.56
2022-12-28T19:32:09.772Z,3.52
2022-12-28T19:34:41.046Z,3.58
2022-12-28T19:37:11.165Z,3.69
2022-12-28T19:39:42.656Z,3.82
2022-12-28T19:42:11.162Z,3.90
2022-12-28T19:44:39.836Z,3.96
2022-12-28T19:47:09.066Z,3.99
2022-12-28T19:49:37.520Z,3.99
2022-12-28T19:52:07.252Z,3.92
2022-12-28T19:54:35.860Z,3.87
2022-12-28T19:57:06.166Z,3.82
2022-12-28T19:59:36.017Z,3.77
2022-12-28T20:02:05.799Z,3.72
2022-12-28T20:04:34.846Z,3.76
2022-12-28T20:07:04.720Z,3.68
2022-12-28T20:09:35.042Z,3.68
2022-12-28T20:12:06.694Z,3.69
2022-12-28T20:14:38.750Z,3.66
2022-12-28T20:17:11.740Z,3.64
2022-12-28T20:19:42.374Z,3.61
2022-12-28T20:22:12.894Z,3.63
2022-12-28T20:24:43.252Z,3.59
2022-12-28T20:27:13.527Z,3.62
2022-12-28T20:29:46.518Z,3.65
2022-12-28T20:32:15.758Z,3.63
2022-12-28T20:34:45.303Z,3.66
2022-12-28T20:37:14.280Z,3.70
2022-12-28T20:39:45.307Z,3.68
2022-12-28T20:42:31.792Z,3.61
2022-12-28T20:45:04.674Z,3.68
2022-12-28T20:47:35.756Z,3.76
2022-12-28T20:50:05.075Z,3.78
2022-12-28T20:52:34.608Z,3.80
2022-12-28T20:55:04.133Z,3.77
2022-12-28T20:57:36.685Z,3.75
2022-12-28T21:00:11.098Z,3.72
2022-12-28T21:02:45.725Z,3.71
2022-12-28T21:05:14.525Z,3.76
2022-12-28T21:07:48.462Z,3.73
2022-12-28T21:10:18.279Z,3.76
2022-12-28T21:12:48.675Z,3.84
2022-12-28T21:15:20.148Z,3.87
2022-12-28T21:17:49.110Z,3.90
2022-12-28T21:20:20.126Z,3.95
2022-12-28T21:22:50.901Z,3.99
2022-12-28T21:25:25.842Z,4.02
2022-12-28T21:27:56.992Z,3.95
2022-12-28T21:30:30.538Z,3.93
2022-12-28T21:32:59.500Z,3.93
2022-12-28T21:35:33.879Z,3.93
2022-12-28T21:38:04.696Z,4.00
2022-12-28T21:40:33.624Z,3.98
2022-12-28T21:43:06.939Z,3.99
2022-12-28T21:45:38.118Z,4.06
2022-12-28T21:48:07.288Z,4.04
2022-12-28T21:50:35.780Z,4.01
2022-12-28T21:53:07.932Z,4.01
2022-12-28T21:55:46.195Z,4.01
2022-12-28T21:58:16.991Z,3.97
2022-12-28T22:01:06.747Z,4.02
2022-12-28T22:03:53.615Z,4.06
2022-12-28T22:06:23.549Z,4.11
2022-12-28T22:09:09.412Z,4.17
2022-12-28T22:11:54.730Z,4.24
2022-12-28T22:14:23.471Z,4.33
2022-12-28T22:16:53.089Z,4.42
2022-12-28T22:19:21.584Z,4.45
2022-12-28T22:21:50.215Z,4.47
2022-12-28T22:24:18.879Z,4.47
2022-12-28T22:26:47.453Z,4.45
2022-12-28T22:29:19.215Z,4.44
2022-12-28T22:31:48.394Z,4.44
2022-12-28T22:34:20.259Z,4.47
2022-12-28T22:36:49.330Z,4.47
2022-12-28T22:39:17.789Z,4.50
2022-12-28T22:41:47.005Z,4.62
2022-12-28T22:44:17.327Z,4.62
2022-12-28T22:46:45.295Z,4.66
2022-12-28T22:49:13.701Z,4.74
2022-12-28T22:51:44.249Z,4.80
2022-12-28T22:54:13.475Z,4.86
2022-12-28T22:56:43.050Z,4.91
2022-12-28T22:59:15.419Z,4.95
2022-12-28T23:01:45.633Z,5.02
2022-12-28T23:04:13.986Z,5.07
2022-12-28T23:06:44.364Z,5.13
2022-12-28T23:09:13.215Z,5.17
2022-12-28T23:11:41.733Z,5.23
2022-12-28T23:14:29.620Z,5.22
2022-12-28T23:16:58.215Z,5.24
2022-12-28T23:19:44.103Z,5.30
2022-12-28T23:22:32.718Z,5.33
2022-12-28T23:25:19.938Z,5.38
2022-12-28T23:27:48.963Z,5.46
2022-12-28T23:30:22.545Z,5.41
2022-12-28T23:32:54.489Z,5.46
2022-12-28T23:35:24.009Z,5.52
2022-12-28T23:37:54.454Z,5.58
2022-12-28T23:40:23.757Z,5.60
2022-12-28T23:42:54.355Z,5.63
2022-12-28T23:45:24.061Z,5.62
2022-12-28T23:47:54.109Z,5.65
2022-12-28T23:50:22.871Z,5.72
2022-12-28T23:52:52.412Z,5.75
2022-12-28T23:55:23.190Z,5.79
2022-12-28T23:57:51.695Z,5.78
